createdAt,value
2019-05-18T00:00:54.801Z,23
2019-05-18T00:01:54.966Z,23
2019-05-18T00:02:54.956Z,23.700001
2019-05-18T00:03:55.062Z,22.299999
2019-05-18T00:04:55.194Z,23.1
2019-05-18T00:05:55.320Z,22.6
2019-05-18T00:06:55.416Z,23.799999
2019-05-18T00:07:55.418Z,23.299999
2019-05-18T00:08:55.511Z,24.6
2019-05-18T00:09:55.597Z,24.1
2019-05-18T00:10:55.673Z,23.700001
2019-05-18T00:11:55.812Z,22.5
2019-05-18T00:12:55.907Z,22.1
2019-05-18T00:13:55.987Z,21.200001
2019-05-18T00:14:56.052Z,21.9
2019-05-18T00:15:56.150Z,21.5
2019-05-18T00:16:56.232Z,22.1
2019-05-18T00:17:56.280Z,22.9
2019-05-18T00:18:56.282Z,22.299999
2019-05-18T00:19:56.351Z,24.200001
2019-05-18T00:20:56.390Z,23.4
2019-05-18T00:21:56.455Z,23.200001
2019-05-18T00:22:56.520Z,23.799999
2019-05-18T00:23:56.540Z,24.299999
2019-05-18T00:24:56.663Z,24
2019-05-18T00:25:56.774Z,24.6
2019-05-18T00:26:56.893Z,24.299999
2019-05-18T00:27:57.025Z,23.5
2019-05-18T00:28:56.928Z,24.4
2019-05-18T00:29:56.947Z,23.6
2019-05-18T00:30:57.075Z,24
2019-05-18T00:31:57.058Z,23.299999
2019-05-18T00:32:57.179Z,22.799999
2019-05-18T00:33:57.142Z,22.5
2019-05-18T00:34:57.168Z,22.6
2019-05-18T00:35:57.235Z,23.200001
2019-05-18T00:36:57.315Z,22.200001
2019-05-18T00:37:57.471Z,21.200001
2019-05-18T00:38:57.554Z,22.700001
2019-05-18T00:39:57.694Z,21.700001
2019-05-18T00:40:57.834Z,21
2019-05-18T00:41:57.911Z,20.5
2019-05-18T00:42:58.027Z,20.5
2019-05-18T00:43:58.145Z,20.700001
2019-05-18T00:44:58.274Z,20.299999
2019-05-18T00:45:58.381Z,20.6
2019-05-18T00:46:58.480Z,20.4
2019-05-18T00:47:58.675Z,21.200001
2019-05-18T00:48:58.634Z,20.5
2019-05-18T00:49:58.750Z,21.1
2019-05-18T00:50:58.912Z,20.799999
2019-05-18T00:51:58.986Z,20.299999
2019-05-18T00:52:59.162Z,20.1
2019-05-18T00:53:59.284Z,20.200001
2019-05-18T00:54:59.342Z,21.200001
2019-05-18T00:56:00.399Z,20.700001
2019-05-18T00:56:59.511Z,20.299999
2019-05-18T00:57:59.576Z,20.700001
2019-05-18T00:58:59.701Z,21
2019-05-18T00:59:59.781Z,20.6
2019-05-18T01:00:59.791Z,21
2019-05-18T01:01:59.836Z,21.1
2019-05-18T01:02:59.903Z,21.9
2019-05-18T01:03:59.958Z,21.4
2019-05-18T01:05:00.024Z,21.299999
2019-05-18T01:06:00.066Z,21.1
2019-05-18T01:07:00.268Z,19.5
2019-05-18T01:08:00.377Z,20.299999
2019-05-18T01:09:00.535Z,20
2019-05-18T01:10:00.593Z,21.5
2019-05-18T01:11:00.631Z,20.4
2019-05-18T01:12:00.664Z,21.5
2019-05-18T01:13:00.651Z,22.299999
2019-05-18T01:14:00.713Z,22.4
2019-05-18T01:15:00.827Z,24.1
2019-05-18T01:16:00.851Z,23.1
2019-05-18T01:17:00.868Z,23.299999
2019-05-18T01:18:02.240Z,22.6
2019-05-18T01:19:01.007Z,22.9
2019-05-18T01:20:01.015Z,22.9
2019-05-18T01:21:00.976Z,22.4
2019-05-18T01:22:01.010Z,21.200001
2019-05-18T01:23:01.002Z,20.4
2019-05-18T01:24:01.037Z,21.299999
2019-05-18T01:25:01.059Z,21.799999
2019-05-18T01:26:01.116Z,20.9
2019-05-18T01:27:02.109Z,22
2019-05-18T01:28:01.120Z,21.799999
2019-05-18T01:29:01.140Z,22.1
2019-05-18T01:30:01.196Z,21.6
2019-05-18T01:31:01.208Z,22.200001
2019-05-18T01:32:01.212Z,21.6
2019-05-18T01:33:01.342Z,22.5
2019-05-18T01:34:01.464Z,22.299999
2019-05-18T01:35:01.646Z,21.9
2019-05-18T01:36:01.590Z,22.200001
2019-05-18T01:37:01.724Z,22
2019-05-18T01:38:01.984Z,22.200001
2019-05-18T01:39:01.841Z,22.5
2019-05-18T01:40:02.019Z,21.6
2019-05-18T01:41:02.029Z,22.4
2019-05-18T01:42:02.078Z,22.9
2019-05-18T01:43:02.106Z,26.200001
2019-05-18T01:44:02.126Z,23.9
2019-05-18T01:45:15.707Z,24.5
2019-05-18T01:46:02.170Z,25.700001
2019-05-18T01:47:03.217Z,22.1
2019-05-18T01:48:13.037Z,22.200001
2019-05-18T01:49:02.474Z,23.200001
2019-05-18T01:50:02.555Z,22.4
2019-05-18T01:51:02.573Z,24.4
2019-05-18T01:52:02.692Z,26
2019-05-18T01:53:02.741Z,26.200001
2019-05-18T01:54:02.763Z,26.1
2019-05-18T01:55:02.830Z,25.799999
2019-05-18T01:56:02.834Z,24.9
2019-05-18T01:57:02.855Z,23.5
2019-05-18T01:58:02.862Z,24.4
2019-05-18T01:59:02.857Z,24.1
2019-05-18T02:00:03.045Z,23.9
2019-05-18T02:01:02.950Z,23.9
2019-05-18T02:02:02.977Z,24.5
2019-05-18T02:03:03.023Z,25.200001
2019-05-18T02:04:03.126Z,24.200001
2019-05-18T02:05:03.176Z,25
2019-05-18T02:06:03.211Z,24.200001
2019-05-18T02:07:03.205Z,24.6
2019-05-18T02:08:03.264Z,24
2019-05-18T02:09:03.306Z,23.6
2019-05-18T02:10:03.433Z,24.200001
2019-05-18T02:11:03.471Z,23.6
2019-05-18T02:12:03.466Z,25.1
2019-05-18T02:13:03.619Z,24.299999
2019-05-18T02:14:03.749Z,24.4
2019-05-18T02:15:03.864Z,23.299999
2019-05-18T02:16:04.000Z,24.200001
2019-05-18T02:17:04.151Z,24.299999
2019-05-18T02:18:04.091Z,23.6
2019-05-18T02:19:04.088Z,24.1
2019-05-18T02:20:04.259Z,23.700001
2019-05-18T02:52:07.345Z,26.700001
2019-05-18T02:53:06.416Z,25.799999
2019-05-18T02:54:06.490Z,25.299999
2019-05-18T02:55:06.632Z,25.4
2019-05-18T02:56:06.699Z,25.200001
2019-05-18T02:57:06.927Z,26.700001
2019-05-18T02:58:06.844Z,26.5
2019-05-18T02:59:06.931Z,26
2019-05-18T03:00:06.981Z,25.5
2019-05-18T03:01:07.036Z,26.5
2019-05-18T03:02:07.126Z,26.299999
2019-05-18T03:03:07.171Z,27
2019-05-18T03:04:07.233Z,25.4
2019-05-18T03:05:07.297Z,25.5
2019-05-18T03:06:07.367Z,26.4
2019-05-18T03:07:07.470Z,26.299999
2019-05-18T03:08:07.567Z,26.799999
2019-05-18T03:09:07.688Z,26.700001
2019-05-18T03:10:07.702Z,26.5
2019-05-18T03:11:07.826Z,27
2019-05-18T03:12:07.899Z,26.700001
2019-05-18T03:13:08.005Z,27.6
2019-05-18T03:14:08.090Z,27.6
2019-05-18T03:15:08.165Z,27.6
2019-05-18T03:16:08.232Z,27
2019-05-18T03:17:08.286Z,27.6
2019-05-18T03:18:08.396Z,26.5
2019-05-18T03:19:09.206Z,26.6
2019-05-18T03:20:08.530Z,27.299999
2019-05-18T03:21:08.568Z,27.4
2019-05-18T03:22:08.644Z,26.5
2019-05-18T03:23:08.749Z,26.799999
2019-05-18T03:24:08.822Z,26.6
2019-05-18T03:25:08.903Z,26.299999
2019-05-18T03:26:08.963Z,25.700001
2019-05-18T03:27:09.020Z,25.299999
2019-05-18T03:28:09.136Z,25.5
2019-05-18T03:29:10.221Z,25.5
2019-05-18T03:30:09.457Z,24.4
2019-05-18T03:31:09.360Z,25
2019-05-18T03:32:09.484Z,25.4
2019-05-18T03:33:09.607Z,26
2019-05-18T03:34:09.818Z,25.6
2019-05-18T03:35:09.756Z,25.200001
2019-05-18T03:36:09.809Z,26
2019-05-18T03:37:09.870Z,25.9
2019-05-18T03:38:09.957Z,26.700001
2019-05-18T03:39:10.041Z,27.799999
2019-05-18T03:40:10.120Z,28.9
2019-05-18T03:41:10.180Z,29.9
2019-05-18T03:42:10.285Z,28.9
2019-05-18T03:43:10.350Z,27.9
2019-05-18T03:44:10.449Z,28.200001
2019-05-18T03:45:10.509Z,29
2019-05-18T03:46:10.589Z,30.4
2019-05-18T03:47:10.654Z,28.9
2019-05-18T03:48:10.833Z,28
2019-05-18T03:49:25.211Z,27.200001
2019-05-18T03:50:11.869Z,27.700001
2019-05-18T03:51:10.951Z,26.9
2019-05-18T03:52:11.072Z,26.5
2019-05-18T03:53:11.183Z,27
2019-05-18T03:54:11.312Z,26.200001
2019-05-18T03:55:11.424Z,26.700001
2019-05-18T03:56:11.526Z,27.6
2019-05-18T03:57:11.618Z,26.6
2019-05-18T03:58:11.717Z,27.6
2019-05-18T03:59:11.857Z,27.6
2019-05-18T04:00:11.985Z,27.6
2019-05-18T04:01:12.086Z,27.200001
2019-05-18T04:02:12.202Z,28.1
2019-05-18T04:03:12.324Z,27.9
2019-05-18T04:04:12.448Z,27.5
2019-05-18T04:05:12.413Z,26.299999
2019-05-18T04:06:12.596Z,26.700001
2019-05-18T04:07:12.578Z,26.1
2019-05-18T04:08:12.573Z,27.1
2019-05-18T04:09:12.844Z,25.9
2019-05-18T04:10:12.838Z,27
2019-05-18T04:11:12.806Z,27.200001
2019-05-18T04:12:12.949Z,28.4
2019-05-18T04:13:13.055Z,28.4
2019-05-18T04:14:13.201Z,28
2019-05-18T04:15:13.230Z,27.799999
2019-05-18T04:16:13.302Z,28.299999
2019-05-18T04:17:13.418Z,29.200001
2019-05-18T04:18:13.386Z,27.9
2019-05-18T04:19:13.581Z,28.200001
2019-05-18T04:20:13.588Z,28.799999
2019-05-18T04:21:13.736Z,28.700001
2019-05-18T04:22:13.907Z,29.5
2019-05-18T04:23:13.992Z,29.1
2019-05-18T04:24:14.193Z,29
2019-05-18T04:25:14.179Z,29.299999
2019-05-18T04:26:14.317Z,27.6
2019-05-18T04:29:14.708Z,29.299999
2019-05-18T04:30:14.843Z,29.1
2019-05-18T04:31:14.962Z,29.700001
2019-05-18T04:32:15.100Z,28.4
2019-05-18T04:33:15.103Z,28.6
2019-05-18T04:34:15.113Z,27.4
2019-05-18T04:35:15.182Z,28.299999
2019-05-18T04:36:15.189Z,28.799999
2019-05-18T04:37:15.197Z,28
2019-05-18T04:38:15.202Z,28.6
2019-05-18T04:39:15.229Z,29.1
2019-05-18T04:40:15.276Z,28.200001
2019-05-18T04:41:15.285Z,28
2019-05-18T04:42:15.286Z,29
2019-05-18T04:43:15.288Z,28.6
2019-05-18T04:44:15.409Z,27.9
2019-05-18T04:45:15.470Z,27
2019-05-18T04:46:15.477Z,27.799999
2019-05-18T04:47:15.485Z,28.200001
2019-05-18T04:48:15.594Z,27.5
2019-05-18T04:49:15.587Z,28.1
2019-05-18T04:50:15.905Z,29.200001
2019-05-18T04:51:15.965Z,27.6
2019-05-18T04:52:15.977Z,28.299999
2019-05-18T04:53:15.996Z,27.5
2019-05-18T04:54:15.999Z,27.4
2019-05-18T04:55:16.045Z,26.9
2019-05-18T04:56:16.033Z,26.700001
2019-05-18T04:57:16.033Z,26.1
2019-05-18T04:58:16.065Z,27.200001
2019-05-18T04:59:16.089Z,26.5
2019-05-18T05:00:16.142Z,26.6
2019-05-18T05:01:17.172Z,26.200001
2019-05-18T05:02:16.192Z,27.200001
2019-05-18T05:03:16.200Z,25.700001
2019-05-18T05:04:16.220Z,26.200001
2019-05-18T05:05:16.226Z,25.700001
2019-05-18T05:06:16.431Z,26
2019-05-18T05:07:16.225Z,26.799999
2019-05-18T05:08:16.256Z,25.299999
2019-05-18T05:09:16.260Z,26.299999
2019-05-18T05:10:16.287Z,26.4
2019-05-18T05:11:16.331Z,26.1
2019-05-18T05:12:16.325Z,26.299999
2019-05-18T05:13:16.322Z,26.5
2019-05-18T05:14:16.337Z,26.6
2019-05-18T05:15:16.346Z,27.700001
2019-05-18T05:16:16.399Z,25.9
2019-05-18T05:17:16.425Z,26.4
2019-05-18T05:18:16.451Z,26.299999
2019-05-18T05:19:16.458Z,25.700001
2019-05-18T05:20:19.545Z,25.6
2019-05-18T05:21:16.700Z,25.4
2019-05-18T05:22:16.579Z,25.5
2019-05-18T05:23:16.585Z,25.200001
2019-05-18T05:24:16.594Z,24.6
2019-05-18T05:25:16.608Z,26.200001
2019-05-18T05:26:16.672Z,25.6
2019-05-18T05:27:16.701Z,25.299999
2019-05-18T05:28:16.695Z,24.9
2019-05-18T05:29:16.726Z,25.4
2019-05-18T05:30:16.750Z,24.4
2019-05-18T05:31:16.792Z,23.700001
2019-05-18T05:32:16.876Z,24
2019-05-18T05:33:16.893Z,23.700001
2019-05-18T05:34:16.908Z,24.4
2019-05-18T05:35:16.941Z,24.6
2019-05-18T05:36:17.548Z,24.1
2019-05-18T05:37:17.083Z,24.1
2019-05-18T05:38:17.105Z,23.9
2019-05-18T05:39:17.111Z,23.200001
2019-05-18T05:40:17.112Z,22.700001
2019-05-18T05:41:17.119Z,22.6
2019-05-18T05:42:17.183Z,23.299999
2019-05-18T05:43:17.182Z,22.9
2019-05-18T05:44:17.192Z,23.1
2019-05-18T05:45:17.213Z,23.9
2019-05-18T05:46:17.262Z,22.799999
2019-05-18T05:47:17.296Z,22.299999
2019-05-18T05:48:17.323Z,20.4
2019-05-18T05:49:17.343Z,21.4
2019-05-18T05:50:17.372Z,22.200001
2019-05-18T05:51:17.432Z,21.4
2019-05-18T05:52:17.468Z,22.200001
2019-05-18T05:53:17.516Z,20.9
2019-05-18T05:54:17.520Z,21
2019-05-18T05:55:17.532Z,21.6
2019-05-18T05:56:17.592Z,20.9
2019-05-18T05:57:17.598Z,21.299999
2019-05-18T05:58:17.647Z,20.4
2019-05-18T05:59:17.671Z,20.1
2019-05-18T06:00:17.712Z,20.5
2019-05-18T06:01:17.750Z,20.6
2019-05-18T06:02:17.772Z,20.1
2019-05-18T06:03:17.833Z,20.5
2019-05-18T06:04:17.870Z,21.1
2019-05-18T06:05:17.870Z,20.1
2019-05-18T06:06:17.873Z,20.9
2019-05-18T06:07:17.917Z,20.6
2019-05-18T06:08:17.951Z,19.799999
2019-05-18T06:09:17.961Z,19.9
2019-05-18T06:10:17.982Z,20.299999
2019-05-18T06:11:17.988Z,19.9
2019-05-18T06:12:18.011Z,20
2019-05-18T06:13:18.119Z,20.200001
2019-05-18T06:14:18.148Z,20
2019-05-18T06:15:18.208Z,20
2019-05-18T06:16:18.184Z,19.9
2019-05-18T06:17:18.230Z,19.4
2019-05-18T06:18:18.320Z,20
2019-05-18T06:19:18.397Z,19
2019-05-18T06:20:18.425Z,20.200001
2019-05-18T06:21:18.443Z,19.4
2019-05-18T06:22:18.444Z,19.6
2019-05-18T06:23:18.458Z,18.799999
2019-05-18T06:24:18.518Z,19
2019-05-18T06:25:18.663Z,19.9
2019-05-18T06:26:18.669Z,19.200001
2019-05-18T06:27:18.756Z,19.1
2019-05-18T06:28:18.850Z,19.9
2019-05-18T06:29:18.879Z,19.799999
2019-05-18T06:30:18.895Z,19.4
2019-05-18T06:31:18.919Z,19.1
2019-05-18T06:32:18.925Z,20.299999
2019-05-18T06:33:18.964Z,18.700001
2019-05-18T06:34:18.995Z,19.1
2019-05-18T06:35:19.007Z,19.6
2019-05-18T06:36:19.013Z,18.200001
2019-05-18T06:37:19.055Z,18.799999
2019-05-18T06:38:19.081Z,18
2019-05-18T06:39:19.174Z,17.4
2019-05-18T06:40:19.467Z,18.299999
2019-05-18T06:41:19.321Z,18.299999
2019-05-18T06:42:19.770Z,17.6
2019-05-18T06:43:19.443Z,17.1
2019-05-18T06:44:19.519Z,16.9
2019-05-18T06:45:19.553Z,17.9
2019-05-18T06:46:20.578Z,17
2019-05-18T06:47:19.589Z,17.299999
2019-05-18T06:48:19.599Z,17.299999
2019-05-18T06:49:19.635Z,17.799999
2019-05-18T06:50:19.696Z,17.5
2019-05-18T06:51:19.707Z,17.5
2019-05-18T06:52:19.725Z,17.6
2019-05-18T06:53:22.935Z,17.5
2019-05-18T06:54:19.758Z,17.700001
2019-05-18T06:55:19.809Z,18
2019-05-18T06:56:19.850Z,17.1
2019-05-18T06:57:19.863Z,16.5
2019-05-18T06:58:19.863Z,16.299999
2019-05-18T06:59:19.864Z,16.6
2019-05-18T07:00:19.950Z,16.200001
2019-05-18T07:01:20.024Z,17.200001
2019-05-18T07:02:20.279Z,16.5
2019-05-18T07:03:20.121Z,16.299999
2019-05-18T07:04:20.130Z,16.4
2019-05-18T07:05:20.182Z,16.799999
2019-05-18T07:06:20.176Z,15.9
2019-05-18T07:07:20.209Z,15.5
2019-05-18T07:08:20.220Z,15.3
2019-05-18T07:09:20.238Z,15.5
2019-05-18T07:10:20.254Z,15.2
2019-05-18T07:11:20.259Z,15.3
2019-05-18T07:12:20.267Z,15.4
2019-05-18T07:13:20.309Z,15.2
2019-05-18T07:14:25.482Z,15.8
2019-05-18T07:15:20.497Z,15.2
2019-05-18T07:16:20.561Z,16.4
2019-05-18T07:17:20.577Z,15.5
2019-05-18T07:18:20.619Z,16.4
2019-05-18T07:19:20.657Z,16.5
2019-05-18T07:20:20.730Z,16.799999
2019-05-18T07:21:22.519Z,16.6
2019-05-18T07:22:20.731Z,16.799999
2019-05-18T07:23:20.733Z,16.299999
2019-05-18T07:24:20.788Z,16.200001
2019-05-18T07:25:21.084Z,16.700001
2019-05-18T07:26:20.932Z,16.799999
2019-05-18T07:27:21.005Z,17
2019-05-18T07:28:21.041Z,16.200001
2019-05-18T07:29:21.060Z,16.700001
2019-05-18T07:30:21.956Z,16.4
2019-05-18T07:31:21.148Z,17
2019-05-18T07:32:21.250Z,16.6
2019-05-18T07:33:21.277Z,16.1
2019-05-18T07:34:21.298Z,16.200001
2019-05-18T07:35:21.380Z,14.9
2019-05-18T07:36:21.378Z,15.1
2019-05-18T07:37:21.406Z,14.4
2019-05-18T07:38:21.429Z,14.9
2019-05-18T07:39:21.457Z,14.5
2019-05-18T07:40:21.541Z,14.5
2019-05-18T07:41:21.653Z,13.5
2019-05-18T07:42:21.719Z,14.1
2019-05-18T07:43:21.739Z,13.1
2019-05-18T07:44:21.759Z,13
2019-05-18T07:45:21.923Z,13.4
2019-05-18T07:46:22.062Z,13.4
2019-05-18T07:47:22.135Z,12.9
2019-05-18T07:48:22.204Z,13.1
2019-05-18T07:49:22.232Z,13.4
2019-05-18T07:50:22.354Z,13.3
2019-05-18T07:51:35.074Z,13.7
2019-05-18T08:36:24.862Z,9.1
2019-05-18T08:40:23.987Z,8.7
2019-05-18T08:41:23.990Z,9
2019-05-18T08:42:23.998Z,8.6
2019-05-18T08:43:24.035Z,9.6
2019-05-18T08:44:24.042Z,9.3
2019-05-18T08:45:24.069Z,9.4
2019-05-18T08:46:24.077Z,8.8
2019-05-18T08:47:24.081Z,9.2
2019-05-18T08:48:24.159Z,9
2019-05-18T08:49:24.180Z,7.9
2019-05-18T08:50:24.193Z,7.2
2019-05-18T08:51:24.225Z,6.7
2019-05-18T08:52:24.241Z,6.8
2019-05-18T08:53:24.302Z,6.6
2019-05-18T08:54:24.325Z,6.9
2019-05-18T08:55:24.378Z,6.2
2019-05-18T08:56:24.384Z,6.4
2019-05-18T08:57:24.392Z,6.6
2019-05-18T08:58:24.465Z,8.1
2019-05-18T08:59:24.538Z,8.9
2019-05-18T09:00:24.602Z,8.2
2019-05-18T09:01:24.661Z,7.9
2019-05-18T09:02:24.704Z,7.5
2019-05-18T09:03:24.819Z,7.6
2019-05-18T09:04:24.884Z,7.6
2019-05-18T09:05:24.900Z,6.4
2019-05-18T09:06:24.913Z,6.4
2019-05-18T09:07:24.929Z,8.2
2019-05-18T09:08:24.972Z,13.9
2019-05-18T09:09:25.014Z,7.6
2019-05-18T09:10:25.029Z,7.4
2019-05-18T09:11:25.020Z,5.7
2019-05-18T09:12:25.039Z,5.9
2019-05-18T09:13:25.102Z,6.2
2019-05-18T09:14:25.158Z,5.8
2019-05-18T09:15:25.180Z,4.9
2019-05-18T09:16:25.182Z,5.1
2019-05-18T09:17:25.178Z,5.2
2019-05-18T09:18:25.202Z,5.5
2019-05-18T09:19:25.233Z,4.3
2019-05-18T09:20:25.277Z,4.9
2019-05-18T09:21:25.278Z,4.9
2019-05-18T09:22:25.286Z,4.1
2019-05-18T09:23:25.298Z,5.5
2019-05-18T09:24:25.357Z,5.7
2019-05-18T09:25:25.382Z,5.5
2019-05-18T09:26:25.385Z,4.8
2019-05-18T09:27:25.393Z,5.6
2019-05-18T09:28:25.418Z,5.8
2019-05-18T09:29:25.477Z,6.9
2019-05-18T09:30:25.567Z,7.9
2019-05-18T09:31:25.619Z,6.8
2019-05-18T09:32:25.585Z,6.7
2019-05-18T09:33:25.605Z,6.2
2019-05-18T09:34:25.613Z,6.6
2019-05-18T09:35:25.653Z,6.3
2019-05-18T09:36:25.695Z,6
2019-05-18T09:37:25.716Z,6.5
2019-05-18T09:38:25.724Z,5.8
2019-05-18T09:39:25.783Z,6
2019-05-18T09:40:25.858Z,6.3
2019-05-18T09:41:25.864Z,6.7
2019-05-18T09:42:25.884Z,6.7
2019-05-18T09:43:25.921Z,6.5
2019-05-18T09:44:25.986Z,5.9
2019-05-18T09:45:25.990Z,5.7
2019-05-18T09:46:26.023Z,5.8
2019-05-18T09:47:26.895Z,5.1
2019-05-18T09:48:26.110Z,5
2019-05-18T09:49:26.158Z,5.4
2019-05-18T09:50:26.203Z,5.8
2019-05-18T09:51:28.457Z,8.3
2019-05-18T09:52:43.928Z,7.5
2019-05-18T09:53:30.002Z,7.1
2019-05-18T09:54:27.799Z,7.3
2019-05-18T09:55:28.563Z,6.8
2019-05-18T09:56:26.762Z,7
2019-05-18T09:57:26.801Z,6.9
2019-05-18T09:58:28.750Z,6.3
2019-05-18T09:59:28.401Z,6.3
2019-05-18T10:00:36.595Z,5.9
2019-05-18T10:01:27.655Z,5.5
2019-05-18T10:02:27.176Z,6.7
2019-05-18T10:03:27.185Z,7.2
2019-05-18T10:04:27.202Z,7
2019-05-18T10:05:27.241Z,6.9
2019-05-18T10:06:27.239Z,6.5
2019-05-18T10:07:27.274Z,6.4
2019-05-18T10:08:27.380Z,5.1
2019-05-18T10:09:32.804Z,5
2019-05-18T10:10:27.461Z,5.1
2019-05-18T10:11:27.521Z,4.7
2019-05-18T10:12:27.546Z,4.6
2019-05-18T10:13:27.591Z,4.7
2019-05-18T10:14:27.599Z,4.4
2019-05-18T10:15:27.738Z,4.4
2019-05-18T10:16:27.793Z,4.6
2019-05-18T10:17:27.772Z,4.7
2019-05-18T10:18:27.805Z,4.6
2019-05-18T10:19:27.818Z,5
2019-05-18T10:20:27.881Z,5.1
2019-05-18T10:21:27.975Z,5.3
2019-05-18T10:22:27.981Z,5
2019-05-18T10:23:27.988Z,6.2
2019-05-18T10:24:28.015Z,6.1
2019-05-18T10:25:28.047Z,5.6
2019-05-18T10:26:28.122Z,5.6
2019-05-18T10:27:28.143Z,5.7
2019-05-18T10:28:28.151Z,6
2019-05-18T10:29:28.157Z,6.3
2019-05-18T10:30:28.164Z,6.5
2019-05-18T10:31:28.219Z,6
2019-05-18T10:32:28.218Z,5.6
2019-05-18T10:33:28.243Z,5.4
2019-05-18T10:34:28.259Z,4.8
2019-05-18T10:35:28.262Z,5
2019-05-18T10:36:28.303Z,5
2019-05-18T10:37:28.302Z,4.7
2019-05-18T10:38:28.333Z,4.5
2019-05-18T10:39:28.314Z,5.4
2019-05-18T10:40:28.325Z,4.8
2019-05-18T10:41:28.376Z,4.8
2019-05-18T10:42:28.418Z,4.5
2019-05-18T10:43:28.476Z,4.6
2019-05-18T10:44:28.487Z,5.4
2019-05-18T10:45:28.513Z,5.4
2019-05-18T10:46:28.566Z,5.7
2019-05-18T10:47:28.605Z,5.4
2019-05-18T10:48:28.639Z,5.6
2019-05-18T10:49:28.647Z,4.9
2019-05-18T10:50:28.668Z,5.1
2019-05-18T10:51:29.729Z,5.3
2019-05-18T10:52:28.753Z,5.2
2019-05-18T10:53:29.243Z,4.8
2019-05-18T10:54:28.963Z,5.2
2019-05-18T10:55:29.039Z,5.7
2019-05-18T10:56:31.180Z,4.9
2019-05-18T10:57:29.161Z,4.8
2019-05-18T10:58:29.158Z,5.4
2019-05-18T10:59:29.179Z,5.7
2019-05-18T11:00:29.198Z,5.2
2019-05-18T11:01:29.218Z,4.7
2019-05-18T11:02:29.331Z,4.4
2019-05-18T11:03:29.334Z,5.3
2019-05-18T11:04:29.382Z,5.3
2019-05-18T11:05:29.394Z,5.5
2019-05-18T11:06:29.433Z,4.7
2019-05-18T11:07:29.454Z,4.6
2019-05-18T11:08:29.491Z,5.3
2019-05-18T11:09:29.502Z,4.6
2019-05-18T11:10:29.570Z,4.5
2019-05-18T11:11:29.604Z,4.6
2019-05-18T11:12:29.669Z,4.4
2019-05-18T11:13:29.695Z,4.1
2019-05-18T11:14:29.714Z,4.5
2019-05-18T11:15:29.829Z,10.8
2019-05-18T11:16:29.870Z,5.2
2019-05-18T11:17:29.965Z,7.8
2019-05-18T11:18:30.431Z,6
2019-05-18T11:19:30.118Z,5.8
2019-05-18T11:20:30.164Z,5.6
2019-05-18T11:21:30.249Z,5.6
2019-05-18T11:22:30.245Z,5.4
2019-05-18T11:23:42.728Z,5.4
2019-05-18T11:24:30.394Z,5.2
2019-05-18T11:25:30.445Z,5.1
2019-05-18T11:26:30.443Z,5.9
2019-05-18T11:27:30.466Z,5.7
2019-05-18T11:28:30.530Z,5.6
2019-05-18T11:29:30.618Z,5.9
2019-05-18T11:30:30.631Z,6.1
2019-05-18T11:31:30.658Z,5.8
2019-05-18T11:32:30.668Z,5.1
2019-05-18T11:33:30.790Z,4.7
2019-05-18T11:34:30.820Z,4.8
2019-05-18T11:35:30.899Z,5.3
2019-05-18T11:36:30.950Z,5.1
2019-05-18T11:37:30.982Z,5
2019-05-18T11:38:31.039Z,5.1
2019-05-18T11:39:31.068Z,5
2019-05-18T11:40:31.097Z,5
2019-05-18T11:41:31.125Z,4.8
2019-05-18T11:42:31.149Z,4.8
2019-05-18T11:43:31.193Z,4.8
2019-05-18T11:44:31.236Z,5
2019-05-18T11:45:31.255Z,4.8
2019-05-18T11:46:31.264Z,4.9
2019-05-18T11:47:31.322Z,4.9
2019-05-18T11:48:32.385Z,5.5
2019-05-18T11:49:31.426Z,4.4
2019-05-18T11:50:31.467Z,4.8
2019-05-18T11:51:31.536Z,4.7
2019-05-18T11:52:31.593Z,5.3
2019-05-18T11:53:31.651Z,4.9
2019-05-18T11:54:31.706Z,5.2
2019-05-18T11:55:31.732Z,5.3
2019-05-18T11:56:31.769Z,5.3
2019-05-18T11:57:31.783Z,5
2019-05-18T11:58:31.798Z,4.7
2019-05-18T11:59:31.851Z,4.7
2019-05-18T12:00:31.853Z,4.4
2019-05-18T12:01:31.920Z,3.9
2019-05-18T12:02:31.945Z,4.5
2019-05-18T12:03:31.956Z,4.3
2019-05-18T12:04:31.998Z,4.7
2019-05-18T12:05:32.020Z,5.1
2019-05-18T12:06:32.032Z,4.7
2019-05-18T12:07:32.036Z,4.6
2019-05-18T12:08:32.080Z,4.9
2019-05-18T12:09:32.168Z,5
2019-05-18T12:10:32.246Z,5
2019-05-18T12:11:32.264Z,4.8
2019-05-18T12:12:32.295Z,3.5
2019-05-18T12:13:32.305Z,2.8
2019-05-18T12:14:32.421Z,2.8
2019-05-18T12:15:32.483Z,2.6
2019-05-18T12:16:32.524Z,2.8
2019-05-18T12:17:32.777Z,2.6
2019-05-18T12:18:32.624Z,2.5
2019-05-18T12:19:32.663Z,2.5
2019-05-18T12:20:32.737Z,2.2
2019-05-18T12:21:32.751Z,2.2
2019-05-18T12:22:32.788Z,2.3
2019-05-18T12:23:32.803Z,2.1
2019-05-18T12:24:32.839Z,2.1
2019-05-18T12:25:32.868Z,2.1
2019-05-18T12:26:32.907Z,2.7
2019-05-18T12:27:32.910Z,2.9
2019-05-18T12:28:32.911Z,2.4
2019-05-18T12:29:32.934Z,2.4
2019-05-18T12:30:33.002Z,2.5
2019-05-18T12:31:33.027Z,2.4
2019-05-18T12:32:33.060Z,2.3
2019-05-18T12:33:33.055Z,2.4
2019-05-18T12:34:33.085Z,2.6
2019-05-18T12:35:33.150Z,2.6
2019-05-18T12:36:33.217Z,2.6
2019-05-18T12:37:34.235Z,2.4
2019-05-18T12:38:33.252Z,3
2019-05-18T12:39:33.277Z,2.5
2019-05-18T12:40:33.326Z,3.2
2019-05-18T12:41:33.341Z,2.3
2019-05-18T12:42:33.379Z,3.2
2019-05-18T12:43:33.408Z,13.4
2019-05-18T12:44:33.462Z,2.5
2019-05-18T12:45:33.519Z,2.4
2019-05-18T12:46:33.618Z,2.2
2019-05-18T12:47:33.554Z,8.6
2019-05-18T12:48:33.568Z,2.5
2019-05-18T12:49:33.596Z,3
2019-05-18T12:50:33.656Z,2.4
2019-05-18T12:51:33.733Z,2.2
2019-05-18T12:52:33.786Z,2.1
2019-05-18T12:53:33.827Z,2.3
2019-05-18T12:54:45.498Z,2.3
2019-05-18T12:55:33.886Z,2.2
2019-05-18T12:56:33.988Z,1.9
2019-05-18T12:57:33.974Z,2.1
2019-05-18T12:58:37.061Z,2
2019-05-18T12:59:34.022Z,2.2
2019-05-18T13:00:34.058Z,2
2019-05-18T13:01:34.115Z,2.1
2019-05-18T13:02:34.138Z,2.1
2019-05-18T13:03:34.175Z,2.1
2019-05-18T13:04:34.216Z,2.5
2019-05-18T13:05:34.259Z,2.4
2019-05-18T13:06:34.387Z,2.5
2019-05-18T13:07:34.447Z,2.2
2019-05-18T13:08:34.544Z,2.7
2019-05-18T13:09:34.564Z,2.3
2019-05-18T13:10:34.574Z,2.5
2019-05-18T13:11:34.632Z,2.3
2019-05-18T13:12:34.676Z,2.5
2019-05-18T13:13:34.691Z,2.5
2019-05-18T13:14:34.738Z,2.9
2019-05-18T13:15:34.786Z,2.3
2019-05-18T13:16:34.844Z,2.1
2019-05-18T13:17:34.978Z,2.1
2019-05-18T13:18:34.995Z,1.8
2019-05-18T13:19:35.051Z,1.9
2019-05-18T13:20:35.088Z,4.3
2019-05-18T13:21:35.152Z,2.4
2019-05-18T13:22:35.194Z,2.1
2019-05-18T13:23:35.248Z,2.1
2019-05-18T13:24:44.630Z,1.9
2019-05-18T13:25:35.417Z,2.2
2019-05-18T13:26:35.475Z,2.1
2019-05-18T13:27:39.025Z,2.1
2019-05-18T13:28:35.491Z,1.9
2019-05-18T13:29:35.502Z,2.2
2019-05-18T13:30:35.514Z,2.2
2019-05-18T13:31:35.584Z,1.9
2019-05-18T13:32:35.632Z,2.2
2019-05-18T13:33:35.673Z,2.3
2019-05-18T13:34:35.696Z,2.4
2019-05-18T13:35:35.718Z,2.3
2019-05-18T13:36:35.795Z,2.2
2019-05-18T13:37:35.830Z,2.3
2019-05-18T13:38:35.839Z,2.3
2019-05-18T13:39:35.875Z,2.3
2019-05-18T13:40:35.883Z,2.3
2019-05-18T13:41:35.940Z,2.7
2019-05-18T13:42:36.015Z,3.7
2019-05-18T13:43:36.018Z,2.5
2019-05-18T13:44:38.070Z,3.4
2019-05-18T13:45:36.050Z,2.7
2019-05-18T13:46:36.078Z,2.7
2019-05-18T13:47:36.169Z,2.3
2019-05-18T13:48:36.171Z,2.5
2019-05-18T13:49:36.211Z,2.2
2019-05-18T13:50:36.235Z,2.1
2019-05-18T13:51:36.297Z,2.5
2019-05-18T13:52:36.367Z,2.3
2019-05-18T13:53:36.388Z,2.5
2019-05-18T13:54:36.419Z,2.3
2019-05-18T13:55:36.453Z,2.1
2019-05-18T13:56:39.695Z,2.2
2019-05-18T13:57:36.502Z,3.2
2019-05-18T13:58:36.552Z,2.8
2019-05-18T13:59:36.563Z,2.3
2019-05-18T14:00:36.577Z,3.8
2019-05-18T14:01:36.615Z,2.2
2019-05-18T14:02:36.708Z,2.1
2019-05-18T14:03:36.730Z,1.9
2019-05-18T14:04:36.788Z,2.5
2019-05-18T14:05:36.818Z,2.6
2019-05-18T14:06:37.876Z,2.5
2019-05-18T14:07:36.977Z,2.6
2019-05-18T14:08:37.007Z,2.5
2019-05-18T14:09:37.051Z,2.3
2019-05-18T14:10:37.102Z,2.3
2019-05-18T14:11:37.132Z,2.9
2019-05-18T14:12:37.203Z,2.5
2019-05-18T14:13:37.195Z,2.2
2019-05-18T14:14:37.214Z,2
2019-05-18T14:15:37.237Z,2.3
2019-05-18T14:16:37.242Z,2.3
2019-05-18T14:17:37.305Z,2.8
2019-05-18T14:18:37.323Z,2.3
2019-05-18T14:19:37.403Z,1.9
2019-05-18T14:20:37.432Z,2.3
2019-05-18T14:21:37.459Z,1.9
2019-05-18T14:22:37.473Z,4.3
2019-05-18T14:23:37.555Z,5
2019-05-18T14:24:37.581Z,3.4
2019-05-18T14:25:37.593Z,2.3
2019-05-18T14:26:37.661Z,2.3
2019-05-18T14:27:37.751Z,2.2
2019-05-18T14:28:37.870Z,2.6
2019-05-18T14:29:38.023Z,2.3